Time;durP1;ratioP1;P1;durP2;ratioP2;P2;SDS_P1;SDS_P2;PMS_P1;PMS_P2;Temp;Humidity;BMP_temperature;BMP_pressure;BME280_temperature;BME280_humidity;BME280_pressure;Samples;Min_cycle;Max_cycle;Signal;HPM_P1;HPM_P2
2022/07/04 00:02:08;;;;;;;;;1.67;1.67;;;;;19.43;45.08;101865.00;5055618;28;72152;-63
2022/07/04 00:04:33;;;;;;;;;1.00;1.00;;;;;19.42;45.13;101865.13;5055871;28;45581;-63
2022/07/04 00:06:58;;;;;;;;;1.00;1.00;;;;;19.39;45.47;101871.59;5058762;28;45484;-65
2022/07/04 00:09:24;;;;;;;;;2.67;1.00;;;;;19.39;45.26;101873.44;5056809;27;51539;-64
2022/07/04 00:11:49;;;;;;;;;1.33;1.33;;;;;19.34;45.42;101874.59;5055939;28;68093;-64
2022/07/04 00:14:14;;;;;;;;;1.00;1.00;;;;;19.31;45.34;101869.44;5052336;28;58942;-64
2022/07/04 00:16:40;;;;;;;;;1.00;1.00;;;;;19.29;45.66;101868.66;5057690;28;67290;-64
2022/07/04 00:19:05;;;;;;;;;2.00;2.00;;;;;19.26;45.98;101860.81;5046698;28;45474;-64
2022/07/04 00:21:30;;;;;;;;;2.33;1.33;;;;;19.26;45.75;101868.91;5042850;28;45711;-64
2022/07/04 00:23:56;;;;;;;;;2.00;2.00;;;;;19.24;45.94;101864.56;5055211;28;67020;-64
2022/07/04 00:26:22;;;;;;;;;2.00;1.00;;;;;19.21;45.94;101871.03;5057610;28;45381;-64
2022/07/04 00:28:47;;;;;;;;;1.33;1.33;;;;;19.18;46.13;101861.34;5057709;28;70719;-64
2022/07/04 00:31:13;;;;;;;;;1.33;1.33;;;;;19.21;46.11;101868.34;5057681;28;45572;-64
2022/07/04 00:33:38;;;;;;;;;0.67;0.67;;;;;19.20;46.08;101874.72;5049848;28;45605;-64
2022/07/04 00:36:04;;;;;;;;;1.00;1.00;;;;;19.20;45.95;101865.78;5050021;28;64015;-64
2022/07/04 00:38:29;;;;;;;;;1.00;1.00;;;;;19.19;45.83;101867.63;5048478;28;46343;-64
2022/07/04 00:40:54;;;;;;;;;1.00;1.00;;;;;19.16;46.07;101870.50;5051820;28;61499;-64
2022/07/04 00:43:24;;;;;;;;;3.00;2.00;;;;;19.15;46.49;101882.25;5055656;28;60751;-64
2022/07/04 00:45:50;;;;;;;;;1.00;1.00;;;;;19.16;46.33;101875.91;5055966;28;45814;-64
2022/07/04 00:48:15;;;;;;;;;1.00;1.00;;;;;19.14;46.55;101872.47;5055392;28;46060;-64
2022/07/04 00:50:42;;;;;;;;;1.00;1.00;;;;;19.15;46.20;101874.16;5056097;28;45438;-64
2022/07/04 00:53:07;;;;;;;;;1.00;1.00;;;;;19.14;46.15;101869.75;5055492;28;45498;-65
2022/07/04 00:55:33;;;;;;;;;3.00;0.33;;;;;19.13;46.25;101876.13;5052828;28;63720;-64
2022/07/04 00:57:59;;;;;;;;;2.33;1.00;;;;;19.11;46.24;101878.03;5039165;28;45845;-64
2022/07/04 01:00:24;;;;;;;;;4.33;1.00;;;;;19.12;45.88;101877.09;5056062;28;49221;-64
2022/07/04 01:02:49;;;;;;;;;0.00;0.00;;;;;19.12;46.20;101885.19;5057844;28;45331;-64
2022/07/04 01:05:15;;;;;;;;;0.33;0.33;;;;;19.11;46.33;101878.94;5057974;28;45430;-64
2022/07/04 01:07:42;;;;;;;;;0.00;0.00;;;;;19.08;46.05;101879.13;5056586;28;46225;-64
2022/07/04 01:10:08;;;;;;;;;0.00;0.00;;;;;19.07;46.12;101884.63;5056651;28;45446;-64
2022/07/04 01:12:34;;;;;;;;;0.00;0.00;;;;;19.02;46.64;101890.34;5057829;28;45725;-64
2022/07/04 01:14:59;;;;;;;;;2.00;1.00;;;;;18.98;46.18;101884.31;5056974;28;45549;-64
2022/07/04 01:17:25;;;;;;;;;1.00;0.67;;;;;18.96;46.20;101883.53;5057013;28;61480;-64
2022/07/04 01:19:50;;;;;;;;;0.00;0.00;;;;;18.95;46.19;101881.78;5058196;28;45534;-64
2022/07/04 01:22:16;;;;;;;;;0.67;0.67;;;;;18.94;46.16;101887.31;5055944;28;63120;-64
2022/07/04 01:24:42;;;;;;;;;0.00;0.00;;;;;18.93;46.45;101888.25;5057746;28;45624;-64
2022/07/04 01:27:07;;;;;;;;;2.33;0.00;;;;;18.90;46.45;101875.84;5057335;28;63423;-64
2022/07/04 01:29:32;;;;;;;;;0.00;0.00;;;;;18.89;46.39;101870.53;5055952;28;68124;-65
2022/07/04 01:32:05;;;;;;;;;0.33;0.33;;;;;18.87;46.44;101877.88;5051349;28;45478;-64
2022/07/04 01:34:30;;;;;;;;;2.00;1.00;;;;;18.84;46.45;101878.97;5054268;28;45308;-64
2022/07/04 01:36:55;;;;;;;;;1.00;1.00;;;;;18.81;46.48;101882.72;5049218;28;71358;-64
2022/07/04 01:39:21;;;;;;;;;1.67;0.00;;;;;18.78;46.65;101873.97;5056679;28;70976;-64
2022/07/04 01:41:46;;;;;;;;;0.33;0.33;;;;;18.76;46.87;101878.59;5045832;28;69173;-64
2022/07/04 01:44:11;;;;;;;;;1.00;1.00;;;;;18.75;46.82;101874.19;5056762;28;66007;-64
2022/07/04 01:46:37;;;;;;;;;1.67;1.00;;;;;18.75;46.83;101874.19;5048193;28;72027;-64
2022/07/04 01:49:02;;;;;;;;;0.00;0.00;;;;;18.73;46.92;101876.97;5058261;28;45292;-64
2022/07/04 01:51:27;;;;;;;;;2.00;0.00;;;;;18.71;46.67;101880.75;5056501;28;63815;-65
2022/07/04 01:53:53;;;;;;;;;1.00;1.00;;;;;18.67;46.92;101874.72;5057049;28;45451;-64
2022/07/04 01:56:18;;;;;;;;;2.00;0.00;;;;;18.64;46.94;101875.78;5052177;28;74277;-64
2022/07/04 01:58:43;;;;;;;;;1.00;1.00;;;;;18.64;47.20;101874.91;5056893;28;67272;-64
2022/07/04 02:03:52;;;;;;;;;1.00;1.00;;;;;18.61;47.11;101880.50;5055334;28;45583;-64
2022/07/04 02:06:18;;;;;;;;;0.00;0.00;;;;;18.62;47.46;101879.56;5049696;28;67447;-64
2022/07/04 02:09:28;;;;;;;;;0.00;0.00;;;;;18.59;47.21;101877.94;5050858;28;45651;-64
2022/07/04 02:13:00;;;;;;;;;0.67;0.33;;;;;18.57;46.97;101873.59;5042089;28;45828;-64
2022/07/04 02:14:14;;;;;;;;;0.00;0.00;;;;;18.52;47.41;101876.59;5053386;28;45486;-64
2022/07/04 02:16:39;;;;;;;;;1.00;1.00;;;;;18.49;47.31;101882.19;5050846;28;67862;-64
2022/07/04 02:19:04;;;;;;;;;0.33;0.33;;;;;18.46;47.53;101871.59;5050994;28;68124;-64
2022/07/04 02:21:30;;;;;;;;;0.00;0.00;;;;;18.41;47.31;101862.97;5053146;28;67831;-64
2022/07/04 02:23:55;;;;;;;;;1.33;1.33;;;;;18.37;47.95;101877.59;5053110;28;63245;-64
2022/07/04 02:26:20;;;;;;;;;1.00;1.00;;;;;18.32;47.97;101869.84;5054661;28;72489;-64
2022/07/04 02:28:45;;;;;;;;;2.00;2.00;;;;;18.30;47.97;101872.66;5051730;28;70511;-64
2022/07/04 02:31:11;;;;;;;;;1.33;0.33;;;;;18.28;48.17;101869.19;5058264;28;69315;-64
2022/07/04 02:33:36;;;;;;;;;2.00;0.67;;;;;18.27;48.28;101871.97;5054405;28;67417;-64
2022/07/04 02:36:02;;;;;;;;;1.00;1.00;;;;;18.26;48.49;101870.25;5056716;28;46235;-64
2022/07/04 02:38:27;;;;;;;;;1.00;1.00;;;;;18.22;48.24;101858.81;5050651;28;45752;-64
2022/07/04 02:40:53;;;;;;;;;1.00;1.00;;;;;18.19;48.37;101867.09;5053350;28;60617;-64
2022/07/04 02:43:18;;;;;;;;;0.00;0.00;;;;;18.15;48.33;101862.88;5053838;28;45425;-64
2022/07/04 02:45:44;;;;;;;;;1.00;1.00;;;;;18.13;48.86;101873.75;5051914;28;69417;-64
2022/07/04 02:48:10;;;;;;;;;1.00;1.00;;;;;18.11;48.48;101877.50;5052894;28;45282;-64
2022/07/04 02:50:35;;;;;;;;;1.00;1.00;;;;;18.07;48.74;101874.16;5050382;28;63486;-64
2022/07/04 02:53:00;;;;;;;;;1.00;1.00;;;;;18.08;48.68;101872.31;5045718;28;63790;-64
2022/07/04 02:55:26;;;;;;;;;1.00;1.00;;;;;18.07;48.91;101871.47;5058952;28;73076;-64
2022/07/04 02:57:51;;;;;;;;;0.33;0.33;;;;;18.06;48.99;101867.03;5059950;28;45816;-64
2022/07/04 03:00:16;;;;;;;;;2.00;1.00;;;;;18.06;48.62;101871.56;5055917;28;68000;-64
2022/07/04 03:02:42;;;;;;;;;2.00;2.00;;;;;18.02;48.88;101874.44;5054007;28;67001;-64
2022/07/04 03:05:07;;;;;;;;;2.33;2.00;;;;;18.00;49.10;101881.75;5051592;28;75623;-64
2022/07/04 03:07:33;;;;;;;;;2.00;1.00;;;;;17.99;49.41;101876.44;5052061;28;45394;-64
2022/07/04 03:09:58;;;;;;;;;3.00;2.00;;;;;17.98;49.38;101875.59;5055589;28;64059;-64
2022/07/04 03:12:23;;;;;;;;;1.67;1.67;;;;;17.98;49.11;101883.69;5056036;28;45574;-64
2022/07/04 03:14:49;;;;;;;;;1.67;1.67;;;;;17.94;49.58;101892.91;5057236;28;73400;-64
2022/07/04 03:17:14;;;;;;;;;1.67;1.00;;;;;17.93;49.38;101890.31;5057838;28;45455;-64
2022/07/04 03:19:39;;;;;;;;;1.00;1.00;;;;;17.95;49.40;101886.56;5057522;28;45727;-64
2022/07/04 03:22:05;;;;;;;;;3.00;1.00;;;;;17.97;49.66;101891.84;5057634;28;61299;-64
2022/07/04 03:24:30;;;;;;;;;3.00;2.00;;;;;17.97;49.50;101898.09;5058238;28;69862;-64
2022/07/04 03:26:55;;;;;;;;;1.33;1.33;;;;;17.96;49.37;101898.19;5057512;28;52409;-64
2022/07/04 03:29:21;;;;;;;;;1.67;1.00;;;;;17.94;49.66;101900.09;5058814;28;45602;-64
2022/07/04 03:31:46;;;;;;;;;1.00;1.00;;;;;17.91;49.50;101889.50;5059606;28;45446;-64
2022/07/04 03:34:11;;;;;;;;;3.00;1.33;;;;;17.88;49.74;101900.50;5057125;28;70890;-64
2022/07/04 03:36:37;;;;;;;;;1.00;1.00;;;;;17.84;49.97;101897.13;5059175;28;67595;-63
2022/07/04 03:39:02;;;;;;;;;1.00;1.00;;;;;17.81;49.72;101889.25;5057993;28;62436;-64
2022/07/04 03:41:28;;;;;;;;;2.00;2.00;;;;;17.78;49.85;101903.75;5054351;28;67770;-64
2022/07/04 03:43:53;;;;;;;;;1.00;1.00;;;;;17.74;50.13;101898.66;5060108;28;46092;-64
2022/07/04 03:46:18;;;;;;;;;1.00;1.00;;;;;17.69;49.95;101902.50;5057366;28;63271;-64
2022/07/04 03:48:44;;;;;;;;;1.67;1.00;;;;;17.68;49.93;101895.41;5056473;28;67374;-64
2022/07/04 03:51:11;;;;;;;;;2.00;0.67;;;;;17.66;50.39;101885.69;5057325;28;45733;-64
2022/07/04 03:53:36;;;;;;;;;1.00;1.00;;;;;17.63;50.02;101888.59;5059780;28;47197;-64
2022/07/04 03:56:02;;;;;;;;;1.00;1.00;;;;;17.60;50.23;101896.81;5058583;28;69339;-64
2022/07/04 03:58:27;;;;;;;;;1.67;1.00;;;;;17.55;50.37;101886.38;5059484;28;45358;-64
2022/07/04 04:00:52;;;;;;;;;1.00;1.00;;;;;17.55;50.61;101890.88;5058740;28;45651;-64
2022/07/04 04:06:01;;;;;;;;;1.00;1.00;;;;;17.50;51.15;101881.25;5059150;28;45424;-64
2022/07/04 04:08:27;;;;;;;;;1.33;1.33;;;;;17.48;50.68;101883.19;5058553;28;45430;-64
2022/07/04 04:10:52;;;;;;;;;4.00;2.00;;;;;17.48;51.14;101880.50;5055517;28;63618;-64
2022/07/04 04:13:17;;;;;;;;;1.00;1.00;;;;;17.47;50.77;101892.22;5055862;28;70200;-64
2022/07/04 04:15:43;;;;;;;;;2.00;1.00;;;;;17.49;50.81;101894.81;5057414;28;50793;-64
2022/07/04 04:18:08;;;;;;;;;1.00;1.00;;;;;17.50;51.04;101888.47;5056106;28;67873;-64
2022/07/04 04:20:33;;;;;;;;;1.67;1.67;;;;;17.50;50.62;101889.34;5058653;28;45209;-64
2022/07/04 04:22:59;;;;;;;;;1.67;1.33;;;;;17.52;51.12;101887.44;5057299;28;45572;-64
2022/07/04 04:25:24;;;;;;;;;2.00;2.00;;;;;17.52;51.18;101894.63;5058100;28;71404;-64
2022/07/04 04:27:49;;;;;;;;;1.00;1.00;;;;;17.50;51.25;101900.09;5055258;28;45482;-64
2022/07/04 04:30:15;;;;;;;;;2.67;2.33;;;;;17.51;51.39;101917.97;5055858;28;45742;-64
2022/07/04 04:32:40;;;;;;;;;1.67;1.67;;;;;17.53;51.17;101916.06;5056622;28;74238;-64
2022/07/04 04:35:06;;;;;;;;;1.00;1.00;;;;;17.58;50.85;101917.59;5056250;28;45366;-64
2022/07/04 04:37:31;;;;;;;;;3.00;1.67;;;;;17.61;51.28;101917.38;5053853;28;45699;-64
2022/07/04 04:39:56;;;;;;;;;3.00;1.33;;;;;17.61;51.04;101920.97;5054953;28;62550;-64
2022/07/04 04:42:22;;;;;;;;;3.00;1.67;;;;;17.65;50.86;101921.63;5056038;28;54701;-64
2022/07/04 04:44:47;;;;;;;;;1.33;1.33;;;;;17.71;51.16;101912.31;5048262;28;45445;-64
2022/07/04 04:47:13;;;;;;;;;2.00;2.00;;;;;17.74;50.83;101922.88;5057266;28;45411;-64
2022/07/04 04:49:38;;;;;;;;;3.00;1.33;;;;;17.76;50.66;101926.34;5057009;28;47652;-64
2022/07/04 04:52:03;;;;;;;;;0.67;0.67;;;;;17.74;50.36;101914.81;5052099;28;46146;-64
2022/07/04 04:54:29;;;;;;;;;2.00;2.00;;;;;17.73;50.57;101922.03;5040869;28;45349;-64
2022/07/04 04:56:54;;;;;;;;;1.33;1.00;;;;;17.74;50.63;101921.03;5055048;28;45363;-64
2022/07/04 04:59:19;;;;;;;;;4.33;3.00;;;;;17.75;51.01;101919.22;5055048;28;67399;-64
2022/07/04 05:01:45;;;;;;;;;2.00;2.00;;;;;17.76;50.84;101915.59;5053317;28;71324;-64
2022/07/04 05:04:10;;;;;;;;;3.33;2.00;;;;;17.78;50.58;101921.72;5055483;28;45380;-64
2022/07/04 05:06:36;;;;;;;;;2.00;2.00;;;;;17.82;51.04;101924.13;5054533;28;45366;-64
2022/07/04 05:09:01;;;;;;;;;2.00;2.00;;;;;17.86;50.99;101922.13;5049719;28;64377;-64
2022/07/04 05:11:26;;;;;;;;;1.33;1.33;;;;;17.90;50.83;101917.38;5052441;28;45533;-64
2022/07/04 05:13:52;;;;;;;;;1.33;1.33;;;;;17.92;50.91;101924.41;5049633;28;45614;-63
2022/07/04 05:16:17;;;;;;;;;2.00;2.00;;;;;17.93;50.79;101926.16;5057811;28;45438;-64
2022/07/04 05:18:42;;;;;;;;;1.33;1.33;;;;;17.94;50.69;101927.03;5057301;28;66267;-64
2022/07/04 05:21:08;;;;;;;;;1.33;1.33;;;;;17.96;50.92;101928.66;5046368;28;66209;-64
2022/07/04 05:23:33;;;;;;;;;1.00;1.00;;;;;17.98;50.78;101929.44;5052150;28;72182;-64
2022/07/04 05:25:58;;;;;;;;;2.00;2.00;;;;;17.99;50.52;101931.16;5054324;28;67967;-64
2022/07/04 05:28:24;;;;;;;;;2.33;2.00;;;;;18.00;50.71;101924.81;5056864;28;45419;-64
2022/07/04 05:30:49;;;;;;;;;1.00;1.00;;;;;18.03;51.07;101923.78;5048498;28;73466;-64
2022/07/04 05:33:15;;;;;;;;;2.67;1.00;;;;;18.04;50.87;101921.94;5052962;28;45395;-64
2022/07/04 05:35:40;;;;;;;;;1.00;1.00;;;;;18.07;50.90;101919.91;5052379;28;45548;-64
2022/07/04 05:38:05;;;;;;;;;3.33;2.00;;;;;18.09;51.07;101923.34;5046723;28;45233;-64
2022/07/04 05:40:30;;;;;;;;;1.33;1.33;;;;;18.11;50.71;101920.59;5054702;28;69422;-64
2022/07/04 05:42:58;;;;;;;;;2.67;2.00;;;;;18.11;50.95;101916.06;5054117;28;72341;-63
2022/07/04 05:45:24;;;;;;;;;1.00;1.00;;;;;18.14;51.17;101926.63;5056610;28;45508;-63
2022/07/04 05:47:49;;;;;;;;;2.33;2.00;;;;;18.17;51.07;101921.06;5041455;28;45639;-63
2022/07/04 05:50:15;;;;;;;;;3.67;2.67;;;;;18.22;51.50;101918.03;5048885;28;69779;-63
2022/07/04 05:52:40;;;;;;;;;1.67;1.67;;;;;18.26;51.30;101911.50;5048309;28;71923;-63
2022/07/04 05:55:07;;;;;;;;;0.00;0.00;;;;;18.30;51.06;101912.16;5054022;28;45693;-63
2022/07/04 05:57:32;;;;;;;;;1.00;1.00;;;;;18.32;51.18;101918.31;5050410;28;45467;-63
2022/07/04 05:59:58;;;;;;;;;3.33;2.00;;;;;18.34;51.03;101919.06;5054497;28;45734;-62
2022/07/04 06:02:23;;;;;;;;;1.67;1.67;;;;;18.37;51.05;101915.31;5050932;28;67029;-64
2022/07/04 06:04:48;;;;;;;;;3.00;2.00;;;;;18.41;50.73;101919.53;5049362;28;45281;-63
2022/07/04 06:07:14;;;;;;;;;2.00;1.67;;;;;18.44;50.87;101924.72;5052729;28;67802;-63
2022/07/04 06:09:39;;;;;;;;;2.00;2.00;;;;;18.46;50.69;101925.47;5044562;28;70794;-64
2022/07/04 06:12:05;;;;;;;;;2.00;2.00;;;;;18.48;50.69;101920.88;5056534;28;59054;-64
2022/07/04 06:14:31;;;;;;;;;3.00;3.00;;;;;18.52;50.84;101925.97;5048840;28;45414;-64
2022/07/04 06:16:56;;;;;;;;;4.00;3.00;;;;;18.55;50.92;101927.59;5056129;28;45320;-63
2022/07/04 06:19:22;;;;;;;;;2.00;2.00;;;;;18.60;50.70;101933.50;5048868;28;46302;-63
2022/07/04 06:21:47;;;;;;;;;2.00;2.00;;;;;18.66;50.65;101930.41;5059383;28;45412;-63
2022/07/04 06:24:12;;;;;;;;;2.00;2.00;;;;;18.75;50.32;101936.19;5059489;28;68316;-64
2022/07/04 06:26:38;;;;;;;;;4.67;2.67;;;;;18.82;50.52;101935.63;5060507;28;45452;-64
2022/07/04 06:29:03;;;;;;;;;2.67;1.33;;;;;18.93;50.41;101934.09;5060167;28;70523;-67
2022/07/04 06:31:28;;;;;;;;;4.00;2.00;;;;;19.04;50.18;101931.53;5059602;28;64863;-63
2022/07/04 06:36:38;;;;;;;;;2.00;2.00;;;;;19.31;49.86;101926.06;5049123;28;45443;-62
2022/07/04 06:39:03;;;;;;;;;3.00;3.00;;;;;19.49;49.80;101929.31;5060279;28;70025;-62
2022/07/04 06:41:28;;;;;;;;;3.00;1.67;;;;;19.64;49.45;101926.53;5056361;28;72468;-61
2022/07/04 06:43:54;;;;;;;;;5.00;2.00;;;;;19.79;49.15;101920.03;5042689;28;45307;-60
2022/07/04 06:46:20;;;;;;;;;2.00;2.00;;;;;19.94;49.18;101919.94;5055168;28;45336;-61
2022/07/04 06:48:45;;;;;;;;;4.00;3.00;;;;;20.12;48.65;101921.28;5060717;28;56551;-63
2022/07/04 06:51:11;;;;;;;;;3.00;3.00;;;;;20.30;48.75;101916.38;5047141;28;71719;-63
2022/07/04 06:53:36;;;;;;;;;5.00;3.00;;;;;20.53;48.08;101924.59;5054256;28;45654;-62
2022/07/04 06:56:02;;;;;;;;;5.33;4.00;;;;;20.76;47.85;101927.47;5053788;28;67361;-62
2022/07/04 06:58:27;;;;;;;;;3.00;3.00;;;;;20.94;47.85;101928.75;5056720;28;45283;-60
2022/07/04 07:00:53;;;;;;;;;2.33;2.33;;;;;21.22;47.83;101931.19;5047548;28;45394;-59
2022/07/04 07:03:18;;;;;;;;;3.67;1.00;;;;;21.54;47.04;101925.97;5059708;28;65485;-59
2022/07/04 07:05:43;;;;;;;;;3.00;2.33;;;;;21.98;46.41;101931.53;5060798;28;45446;-59
2022/07/04 07:08:09;;;;;;;;;2.00;1.33;;;;;22.54;46.08;101930.59;5040495;28;66726;-59
2022/07/04 07:10:35;;;;;;;;;2.33;2.00;;;;;23.29;45.24;101942.34;5039322;28;67487;-59
2022/07/04 07:13:01;;;;;;;;;3.00;3.00;;;;;24.41;44.61;101933.41;5060417;28;45386;-58
2022/07/04 07:15:26;;;;;;;;;3.33;2.00;;;;;25.87;42.95;101934.28;5052161;28;45642;-58
2022/07/04 07:17:52;;;;;;;;;3.00;1.00;;;;;27.64;40.60;101932.94;5048670;27;46794;-59
2022/07/04 07:20:17;;;;;;;;;2.00;2.00;;;;;29.38;37.80;101938.63;5056615;28;69726;-59
2022/07/04 07:22:43;;;;;;;;;2.33;1.33;;;;;30.97;35.34;101941.31;5054892;28;45935;-58
2022/07/04 07:25:11;;;;;;;;;2.33;2.33;;;;;32.55;34.07;101943.97;5057778;28;45339;-58
2022/07/04 07:27:38;;;;;;;;;1.67;1.67;;;;;34.01;31.42;101950.03;5055641;28;46412;-58
2022/07/04 07:30:04;;;;;;;;;4.67;2.00;;;;;35.30;29.12;101952.81;5052270;28;45620;-58
2022/07/04 07:32:30;;;;;;;;;2.33;1.33;;;;;36.38;27.56;101949.53;5052907;28;45396;-58
2022/07/04 07:34:55;;;;;;;;;4.33;1.67;;;;;37.43;26.66;101946.41;5052400;28;45494;-58
2022/07/04 07:37:21;;;;;;;;;2.00;2.00;;;;;38.32;25.37;101952.41;5048671;28;72265;-58
2022/07/04 07:39:47;;;;;;;;;1.00;1.00;;;;;39.32;24.46;101955.53;5054548;28;45463;-60
2022/07/04 07:42:13;;;;;;;;;2.00;0.67;;;;;40.01;22.46;101957.59;5057500;28;45659;-60
2022/07/04 07:44:38;;;;;;;;;3.33;1.33;;;;;40.60;22.02;101944.50;5058494;28;68587;-57
2022/07/04 07:47:03;;;;;;;;;1.00;1.00;;;;;41.29;20.97;101941.47;5057772;28;51938;-60
2022/07/04 07:49:29;;;;;;;;;2.00;2.00;;;;;41.83;20.40;101946.41;5055439;28;66639;-60
2022/07/04 07:51:56;;;;;;;;;2.67;0.67;;;;;42.15;20.05;101939.22;5055580;28;61429;-58
2022/07/04 07:54:21;;;;;;;;;0.25;0.25;;;;;42.49;19.46;101944.63;5054799;28;45553;-60
2022/07/04 07:56:46;;;;;;;;;1.33;0.67;;;;;42.90;19.03;101946.97;5057151;28;46110;-58
2022/07/04 07:59:12;;;;;;;;;0.00;0.00;;;;;43.23;18.46;101931.81;5058544;28;45448;-60
2022/07/04 08:01:37;;;;;;;;;1.25;1.25;;;;;43.90;18.42;101946.16;5059541;28;45386;-60
2022/07/04 08:06:47;;;;;;;;;0.50;0.50;;;;;44.94;16.88;101930.31;5054166;28;45462;-60
2022/07/04 08:09:14;;;;;;;;;0.00;0.00;;;;;45.36;16.12;101936.69;5046776;28;68965;-60
2022/07/04 08:11:40;;;;;;;;;2.50;0.00;;;;;45.91;15.85;101936.78;5046825;28;45664;-58
2022/07/04 08:14:07;;;;;;;;;0.25;0.25;;;;;46.40;15.44;101935.91;5057029;28;45426;-59
2022/07/04 08:16:33;;;;;;;;;0.25;0.25;;;;;46.94;15.54;101938.81;5052084;28;46298;-59
2022/07/04 08:18:59;;;;;;;;;1.00;1.00;;;;;47.54;14.43;101931.97;5051439;28;45720;-59
2022/07/04 08:21:24;;;;;;;;;3.50;0.00;;;;;48.15;13.77;101935.91;5055698;28;45699;-59
2022/07/04 08:23:49;;;;;;;;;0.00;0.00;;;;;48.71;13.34;101935.31;5054632;28;66194;-59
2022/07/04 08:26:15;;;;;;;;;0.00;0.00;;;;;49.28;12.94;101932.28;5055480;28;50625;-59
2022/07/04 08:28:40;;;;;;;;;0.00;0.00;;;;;49.52;12.78;101936.84;5054968;28;66662;-59
2022/07/04 08:31:05;;;;;;;;;0.50;0.00;;;;;49.79;12.00;101936.84;5055013;28;69442;-59
2022/07/04 08:33:31;;;;;;;;;1.00;1.00;;;;;50.21;12.33;101933.91;5053305;28;63838;-59
2022/07/04 08:35:58;;;;;;;;;1.00;1.00;;;;;50.22;10.21;101929.06;5055849;28;47090;-59
2022/07/04 08:38:23;;;;;;;;;1.00;0.00;;;;;50.14;10.97;101923.03;5053590;28;45692;-59
2022/07/04 08:40:50;;;;;;;;;1.00;0.00;;;;;50.37;11.22;101923.06;5054265;28;63793;-59
2022/07/04 08:43:18;;;;;;;;;0.00;0.00;;;;;50.69;11.24;101923.06;5053686;28;45545;-59
2022/07/04 08:45:47;;;;;;;;;0.00;0.00;;;;;51.11;11.16;101917.97;5054371;28;74396;-59
2022/07/04 08:48:13;;;;;;;;;3.00;1.00;;;;;51.10;10.13;101916.34;5054236;28;45597;-59
2022/07/04 08:50:43;;;;;;;;;0.25;0.25;;;;;51.26;10.37;101920.34;5055117;28;67990;-59
2022/07/04 08:53:12;;;;;;;;;0.00;0.00;;;;;51.84;10.42;101911.00;5053823;28;45553;-59
2022/07/04 08:58:29;;;;;;;;;1.00;0.00;;;;;52.83;9.63;101907.34;5055049;28;45741;-59
2022/07/04 09:00:56;;;;;;;;;0.00;0.00;;;;;53.45;9.07;101907.06;5054907;28;45633;-59
2022/07/04 09:03:22;;;;;;;;;0.00;0.00;;;;;53.81;9.05;101909.31;5058050;28;45444;-59
2022/07/04 09:05:48;;;;;;;;;1.00;1.00;;;;;53.62;9.03;101917.47;5057774;28;46260;-59
2022/07/04 09:08:13;;;;;;;;;0.75;0.75;;;;;53.42;9.16;101917.91;5055615;28;45405;-59
2022/07/04 09:10:39;;;;;;;;;1.00;1.00;;;;;53.93;8.79;101914.22;5055596;28;64995;-59
2022/07/04 09:13:06;;;;;;;;;0.33;0.33;;;;;54.53;8.33;101911.97;5057510;28;64119;-59
2022/07/04 09:15:32;;;;;;;;;0.00;0.00;;;;;55.01;7.88;101912.38;5057541;28;46328;-59
2022/07/04 09:17:58;;;;;;;;;1.25;0.00;;;;;55.44;7.28;101906.44;5058049;28;45775;-59
2022/07/04 09:20:24;;;;;;;;;0.00;0.00;;;;;55.91;7.78;101907.84;5057141;28;45538;-59
2022/07/04 09:22:51;;;;;;;;;0.25;0.25;;;;;56.13;7.82;101898.72;5058459;28;45752;-59
2022/07/04 09:25:17;;;;;;;;;3.00;0.00;;;;;56.28;6.61;101905.66;5056464;28;45422;-59
2022/07/04 09:27:54;;;;;;;;;0.00;0.00;;;;;56.58;6.44;101896.66;5057452;28;45412;-59
2022/07/04 09:30:23;;;;;;;;;0.00;0.00;;;;;56.81;6.87;101898.88;5057657;28;45332;-59
2022/07/04 09:32:51;;;;;;;;;1.00;0.00;;;;;57.06;6.32;101904.41;5056230;28;45352;-59
2022/07/04 09:35:24;;;;;;;;;0.00;0.00;;;;;57.42;6.19;101899.53;5055225;28;46210;-59
2022/07/04 09:37:54;;;;;;;;;0.00;0.00;;;;;57.56;6.09;101908.41;5054170;28;45971;-59
2022/07/04 09:40:27;;;;;;;;;1.00;0.00;;;;;57.85;6.71;101905.34;5053626;28;45581;-59
2022/07/04 09:42:53;;;;;;;;;0.75;0.75;;;;;58.00;6.52;101892.16;5055117;28;45689;-59
2022/07/04 09:45:21;;;;;;;;;0.00;0.00;;;;;57.79;5.44;101896.25;5053143;28;45431;-59
2022/07/04 09:47:47;;;;;;;;;0.00;0.00;;;;;57.86;5.80;101901.28;5054037;28;45550;-59
2022/07/04 09:50:18;;;;;;;;;1.00;1.00;;;;;58.16;5.45;101897.81;5053495;28;45437;-58
2022/07/04 09:53:00;;;;;;;;;0.00;0.00;;;;;58.60;5.11;101895.34;5053916;28;45606;-59
2022/07/04 09:55:30;;;;;;;;;0.67;0.67;;;;;58.88;4.85;101894.19;5054041;28;46739;-59
2022/07/04 09:58:04;;;;;;;;;0.00;0.00;;;;;59.17;5.03;101888.06;5053726;28;45819;-59
2022/07/04 10:00:37;;;;;;;;;0.33;0.33;;;;;59.42;5.27;101889.25;5053521;28;46454;-59
2022/07/04 10:03:26;;;;;;;;;0.00;0.00;;;;;59.54;5.34;101885.31;5053898;28;45421;-59
2022/07/04 10:06:12;;;;;;;;;1.00;0.00;;;;;59.78;5.49;101894.63;5054124;28;46409;-59
2022/07/04 10:08:38;;;;;;;;;1.00;1.00;;;;;59.96;4.84;101896.88;5053229;28;45888;-59
2022/07/04 10:11:04;;;;;;;;;1.75;1.00;;;;;60.08;4.93;101897.44;5054983;28;45684;-59
2022/07/04 10:13:30;;;;;;;;;0.00;0.00;;;;;60.23;5.00;101878.31;5053626;28;46074;-59
2022/07/04 10:15:57;;;;;;;;;0.00;0.00;;;;;60.34;4.61;101869.81;5055280;28;47069;-59
2022/07/04 10:18:23;;;;;;;;;0.00;0.00;;;;;60.08;4.42;101865.03;5053902;28;45481;-59
2022/07/04 10:20:50;;;;;;;;;0.00;0.00;;;;;60.22;4.16;101870.09;5057041;28;45339;-59
2022/07/04 10:23:16;;;;;;;;;0.00;0.00;;;;;60.30;5.03;101857.44;5055594;28;45451;-60
2022/07/04 10:25:42;;;;;;;;;0.00;0.00;;;;;60.40;4.81;101856.75;5057380;28;45669;-60
2022/07/04 10:28:08;;;;;;;;;0.00;0.00;;;;;60.52;5.16;101852.72;5055040;28;45577;-60
2022/07/04 10:30:36;;;;;;;;;0.00;0.00;;;;;60.65;4.11;101856.13;5043886;28;45356;-60
2022/07/04 10:33:04;;;;;;;;;2.33;2.33;;;;;60.68;4.58;101854.50;5056450;28;45300;-60
2022/07/04 10:35:56;;;;;;;;;0.00;0.00;;;;;60.63;4.56;101846.25;5056078;28;46127;-58
2022/07/04 10:38:32;;;;;;;;;0.00;0.00;;;;;60.95;4.90;101845.69;5055741;28;45344;-59
2022/07/04 10:41:08;;;;;;;;;0.67;0.67;;;;;61.19;4.88;101853.59;5047866;28;45511;-59
2022/07/04 10:43:37;;;;;;;;;1.33;1.33;;;;;61.11;3.55;101845.34;5048669;28;45416;-60
2022/07/04 10:46:02;;;;;;;;;0.00;0.00;;;;;61.10;3.49;101833.00;5053460;27;46336;-59
2022/07/04 10:48:29;;;;;;;;;0.00;0.00;;;;;60.86;4.30;101841.06;5042022;28;45482;-58
2022/07/04 10:51:04;;;;;;;;;2.00;2.00;;;;;60.77;3.78;101832.00;5049536;28;45844;-59
2022/07/04 10:53:31;;;;;;;;;0.67;0.67;;;;;60.86;2.76;101829.59;5053144;28;45586;-59
2022/07/04 10:56:14;;;;;;;;;0.00;0.00;;;;;61.55;3.68;101838.56;5049955;28;46110;-59
2022/07/04 10:58:40;;;;;;;;;0.00;0.00;;;;;62.08;3.80;101844.81;5051734;28;45422;-60
2022/07/04 11:01:15;;;;;;;;;0.00;0.00;;;;;62.15;3.10;101839.94;5052952;28;45809;-59
2022/07/04 11:03:48;;;;;;;;;0.00;0.00;;;;;62.51;3.51;101821.81;5055484;28;45704;-60
2022/07/04 11:06:32;;;;;;;;;0.00;0.00;;;;;62.79;3.60;101823.00;5057390;28;45569;-60
2022/07/04 11:09:19;;;;;;;;;1.67;1.00;;;;;63.10;3.14;101821.28;5056998;28;45693;-60
2022/07/04 11:11:59;;;;;;;;;0.00;0.00;;;;;63.32;3.22;101822.00;5056501;28;46463;-60
2022/07/04 11:14:43;;;;;;;;;0.00;0.00;;;;;63.16;3.12;101824.53;5056466;28;45788;-60
2022/07/04 11:17:11;;;;;;;;;1.00;1.00;;;;;63.00;3.44;101810.59;5056639;28;46675;-60
2022/07/04 11:19:37;;;;;;;;;1.00;1.00;;;;;62.89;3.58;101810.63;5055098;28;45448;-60
2022/07/04 11:22:05;;;;;;;;;0.00;0.00;;;;;63.08;2.68;101812.22;5052315;28;45504;-60
2022/07/04 11:24:30;;;;;;;;;1.33;0.00;;;;;63.43;3.15;101819.03;5054835;28;45547;-60
2022/07/04 11:26:56;;;;;;;;;0.00;0.00;;;;;63.93;2.69;101812.16;5054874;28;46095;-60
2022/07/04 11:29:21;;;;;;;;;0.00;0.00;;;;;64.27;1.94;101808.56;5053921;28;61481;-59
2022/07/04 11:31:50;;;;;;;;;0.67;0.67;;;;;64.32;2.06;101815.13;5053861;28;45483;-60
2022/07/04 11:34:19;;;;;;;;;0.00;0.00;;;;;64.57;3.08;101801.25;5049559;28;45513;-60
2022/07/04 11:36:46;;;;;;;;;1.67;0.00;;;;;65.03;2.91;101804.03;5052760;28;46428;-60
2022/07/04 11:39:18;;;;;;;;;1.00;1.00;;;;;65.55;2.37;101797.09;5055658;28;45470;-60